Time;durP1;ratioP1;P1;durP2;ratioP2;P2;SDS_P1;SDS_P2;PMS_P1;PMS_P2;Temp;Humidity;BMP_temperature;BMP_pressure;BME280_temperature;BME280_humidity;BME280_pressure;Samples;Min_cycle;Max_cycle;Signal;HPM_P1;HPM_P2
2023/04/09 00:01:08;;;;;;;;;;;11.40;80.30;;;11.67;50.76;99380.22;5031615;28;109529;-77
2023/04/09 00:03:35;;;;;;;;;;;11.40;80.40;;;11.65;50.66;99385.22;5037363;27;108363;-77
2023/04/09 00:06:01;;;;;;;;;;;11.40;80.50;;;11.65;50.35;99376.91;5028282;28;124095;-77
2023/04/09 00:08:30;;;;;;;;;;;11.40;80.60;;;11.66;50.74;99381.31;5016676;28;123979;-76
2023/04/09 00:10:57;;;;;;;;;;;11.40;80.70;;;11.68;50.93;99381.84;5024457;28;110019;-78
2023/04/09 00:13:24;;;;;;;;;;;11.40;80.80;;;11.68;50.91;99381.84;5066958;27;109453;-77
2023/04/09 00:15:50;;;;;;;;;;;11.40;80.90;;;11.68;50.93;99379.06;5015516;28;124268;-78
2023/04/09 00:18:16;;;;;;;;;;;11.40;80.90;;;11.68;50.98;99381.84;5029775;27;123612;-77
2023/04/09 00:20:43;;;;;;;;;;;11.40;81.00;;;11.67;51.24;99381.03;5031529;28;109000;-78
2023/04/09 00:23:11;;;;;;;;;;;11.40;81.10;;;11.67;50.92;99374.66;5030447;28;108725;-78
2023/04/09 00:25:40;;;;;;;;;;;11.40;81.20;;;11.67;51.26;99374.66;5060494;27;124793;-78
2023/04/09 00:28:06;;;;;;;;;;;11.40;81.30;;;11.66;51.01;99370.25;5031469;28;122981;-78
2023/04/09 00:30:32;;;;;;;;;;;11.40;81.40;;;11.65;51.14;99368.63;5033234;28;108381;-79
2023/04/09 00:32:59;;;;;;;;;;;11.40;81.50;;;11.66;51.58;99376.63;5030914;27;108987;-78
2023/04/09 00:35:25;;;;;;;;;;;11.40;81.60;;;11.64;51.18;99370.56;5032542;27;123779;-78
2023/04/09 00:37:52;;;;;;;;;;;11.40;81.70;;;11.65;51.50;99379.69;5030135;27;124334;-77
2023/04/09 00:40:18;;;;;;;;;;;11.40;81.70;;;11.64;51.59;99378.06;5033755;27;109030;-75
2023/04/09 00:42:44;;;;;;;;;;;11.30;81.70;;;11.63;51.87;99379.16;5033426;28;108329;-76
2023/04/09 00:45:13;;;;;;;;;;;11.30;81.70;;;11.63;51.32;99370.84;5033067;27;123512;-80
2023/04/09 00:47:39;;;;;;;;;;;11.30;81.80;;;11.62;51.57;99366.47;5030532;28;123837;-78
2023/04/09 00:50:06;;;;;;;;;;;11.30;81.90;;;11.62;51.30;99372.00;5030394;27;109460;-78
2023/04/09 00:52:32;;;;;;;;;;;11.30;81.90;;;11.61;51.54;99373.13;5034349;27;107992;-77
2023/04/09 00:55:00;;;;;;;;;;;11.30;82.00;;;11.60;51.85;99374.25;5030059;28;123672;-76
2023/04/09 00:57:27;;;;;;;;;;;11.30;82.00;;;11.59;51.72;99364.31;5032665;28;123864;-77
2023/04/09 00:59:54;;;;;;;;;;;11.30;82.10;;;11.59;51.79;99380.91;5012639;28;109702;-75
2023/04/09 01:02:22;;;;;;;;;;;11.30;82.10;;;11.59;51.81;99367.06;5021106;27;108884;-75
2023/04/09 01:04:49;;;;;;;;;;;11.30;82.20;;;11.59;51.53;99367.06;5067461;27;123781;-78
2023/04/09 01:07:15;;;;;;;;;;;11.30;82.20;;;11.58;51.54;99370.94;5041111;27;124144;-77
2023/04/09 01:09:53;;;;;;;;;;;11.30;82.20;;;11.56;51.61;99370.47;5065081;27;108919;-77
2023/04/09 01:12:32;;;;;;;;;;;11.20;82.20;;;11.54;51.84;99372.69;5036138;27;108759;-79
2023/04/09 01:15:09;;;;;;;;;;;11.20;82.20;;;11.49;51.51;99362.53;5029459;27;126296;-78
2023/04/09 01:17:41;;;;;;;;;;;11.20;82.20;;;11.46;52.20;99369.50;5020179;28;123924;-77
2023/04/09 01:20:21;;;;;;;;;;;11.20;82.30;;;11.40;51.77;99362.44;5031204;28;108976;-76
2023/04/09 01:22:58;;;;;;;;;;;11.20;82.30;;;11.39;52.39;99358.03;5063563;27;108719;-76
2023/04/09 01:26:01;;;;;;;;;;;11.20;82.40;;;11.37;52.01;99362.22;5028772;27;124178;-76
2023/04/09 01:28:32;;;;;;;;;;;11.10;82.40;;;11.37;52.08;99360.28;5031757;28;123337;-75
2023/04/09 01:31:02;;;;;;;;;;;11.10;82.50;;;11.37;52.06;99357.50;5029787;28;109322;-78
2023/04/09 01:33:30;;;;;;;;;;;11.10;82.60;;;11.38;52.24;99361.91;5030180;28;108520;-78
2023/04/09 01:35:56;;;;;;;;;;;11.10;82.70;;;11.39;52.13;99366.34;5030046;28;124185;-77
2023/04/09 01:38:26;;;;;;;;;;;11.10;82.80;;;11.41;52.61;99361.28;5031646;28;124005;-76
2023/04/09 01:40:53;;;;;;;;;;;11.10;83.00;;;11.40;52.41;99361.63;5030030;27;109312;-77
2023/04/09 01:43:20;;;;;;;;;;;11.10;83.00;;;11.40;52.40;99367.97;5029839;28;108414;-77
2023/04/09 01:45:47;;;;;;;;;;;11.10;83.10;;;11.40;52.44;99367.97;5028796;28;123944;-77
2023/04/09 01:48:15;;;;;;;;;;;11.10;83.80;;;11.39;52.40;99366.34;5066581;27;123194;-75
2023/04/09 01:50:41;;;;;;;;;;;11.10;83.30;;;11.38;52.46;99364.66;5011041;28;109347;-78
2023/04/09 01:53:10;;;;;;;;;;;11.10;83.90;;;11.38;52.53;99370.19;5029483;28;109695;-76
2023/04/09 01:55:36;;;;;;;;;;;11.10;83.30;;;11.38;52.53;99364.66;5039217;27;123966;-76
2023/04/09 01:58:02;;;;;;;;;;;11.10;83.40;;;11.37;52.49;99368.56;5032962;27;123898;-76
2023/04/09 02:00:41;;;;;;;;;;;11.10;83.40;;;11.37;52.75;99363.03;5030463;28;109570;-77
2023/04/09 02:03:15;;;;;;;;;;;11.10;83.50;;;11.37;52.56;99374.09;5046904;27;108386;-76
2023/04/09 02:05:47;;;;;;;;;;;11.10;83.60;;;11.37;52.88;99368.56;5031712;28;124212;-78
2023/04/09 02:08:18;;;;;;;;;;;11.10;83.60;;;11.34;52.73;99365.56;5020819;28;123751;-75
2023/04/09 02:10:52;;;;;;;;;;;11.10;83.60;;;11.32;52.87;99360.34;5029281;27;109016;-77
2023/04/09 02:13:19;;;;;;;;;;;11.00;83.60;;;11.31;52.78;99369.78;5029734;28;108558;-76
2023/04/09 02:15:46;;;;;;;;;;;11.00;83.70;;;11.30;52.87;99370.91;5028060;28;124221;-76
2023/04/09 02:18:33;;;;;;;;;;;11.00;83.70;;;11.28;52.83;99362.06;5028886;27;124522;-78
2023/04/09 02:20:59;;;;;;;;;;;11.00;83.90;;;11.26;52.84;99354.09;5054964;27;109321;-78
2023/04/09 02:23:26;;;;;;;;;;;11.00;84.00;;;11.24;52.97;99364.63;5041670;27;108674;-77
2023/04/09 02:25:53;;;;;;;;;;;11.00;84.00;;;11.23;53.15;99351.94;5035656;27;124224;-77
2023/04/09 02:28:19;;;;;;;;;;;11.00;84.00;;;11.23;53.37;99363.00;5028377;28;124303;-76
2023/04/09 02:30:45;;;;;;;;;;;11.00;84.20;;;11.20;53.37;99352.56;5030150;28;109483;-77
2023/04/09 02:33:12;;;;;;;;;;;10.90;84.10;;;11.19;53.16;99366.66;5030648;28;108579;-76
2023/04/09 02:35:38;;;;;;;;;;;10.90;84.20;;;11.18;53.52;99363.09;5061679;27;123916;-76
2023/04/09 02:38:04;;;;;;;;;;;10.90;84.30;;;11.19;53.27;99363.91;5037064;27;123511;-76
2023/04/09 02:40:30;;;;;;;;;;;10.90;84.40;;;11.18;53.87;99353.97;5060289;27;110541;-77
2023/04/09 02:42:57;;;;;;;;;;;10.90;84.50;;;11.18;53.44;99359.50;5030649;28;108600;-76
2023/04/09 02:45:23;;;;;;;;;;;10.90;84.60;;;11.15;53.37;99355.41;5029107;28;124402;-76
2023/04/09 02:47:52;;;;;;;;;;;10.90;84.80;;;11.13;53.59;99359.59;5029537;28;123823;-77
2023/04/09 02:50:24;;;;;;;;;;;10.90;84.70;;;11.09;53.55;99361.31;5030308;28;109551;-73
2023/04/09 02:52:50;;;;;;;;;;;10.90;84.90;;;11.03;54.10;99366.91;5040838;27;108103;-74
2023/04/09 02:55:18;;;;;;;;;;;10.80;84.90;;;11.00;54.26;99363.94;5030604;28;123144;-75
2023/04/09 02:57:44;;;;;;;;;;;10.70;85.10;;;10.96;54.07;99369.25;5028028;28;124641;-74
2023/04/09 03:00:14;;;;;;;;;;;10.70;85.10;;;10.96;54.34;99357.34;5031979;28;109653;-75
2023/04/09 03:02:42;;;;;;;;;;;10.70;85.20;;;10.97;54.35;99359.03;5050626;27;107844;-75
2023/04/09 03:05:08;;;;;;;;;;;10.70;85.30;;;10.98;54.40;99350.41;5036167;28;123900;-74
2023/04/09 03:07:35;;;;;;;;;;;10.70;85.30;;;10.99;54.33;99356.78;5017473;28;123847;-75
2023/04/09 03:10:01;;;;;;;;;;;10.70;85.30;;;10.98;53.95;99360.66;5031972;28;109401;-77
2023/04/09 03:12:29;;;;;;;;;;;10.70;85.40;;;10.98;54.18;99353.19;5032378;28;108962;-75
2023/04/09 03:14:56;;;;;;;;;;;10.70;85.40;;;10.96;54.34;99349.91;5031952;28;124153;-75
2023/04/09 03:17:25;;;;;;;;;;;10.70;85.50;;;10.94;54.33;99352.16;5032976;28;124521;-75
2023/04/09 03:19:52;;;;;;;;;;;10.70;85.50;;;10.92;54.65;99346.09;5018158;28;108969;-75
2023/04/09 03:22:19;;;;;;;;;;;10.70;85.60;;;10.89;54.55;99343.94;5033462;27;108801;-75
2023/04/09 03:24:45;;;;;;;;;;;10.60;85.90;;;10.84;54.81;99349.53;5033558;27;124123;-75
2023/04/09 03:27:11;;;;;;;;;;;10.60;85.70;;;10.81;54.87;99345.44;5033786;28;123819;-77
2023/04/09 03:29:37;;;;;;;;;;;10.60;85.70;;;10.81;54.52;99347.38;5030844;28;110018;-75
2023/04/09 03:32:04;;;;;;;;;;;10.60;85.80;;;10.81;54.80;99342.66;5035501;28;109225;-75
2023/04/09 03:34:30;;;;;;;;;;;10.60;85.90;;;10.82;54.58;99340.72;5031414;28;124588;-74
2023/04/09 03:36:56;;;;;;;;;;;10.60;86.00;;;10.84;54.86;99344.00;5025284;28;123002;-74
2023/04/09 03:39:22;;;;;;;;;;;10.60;86.10;;;10.86;54.89;99350.06;5023519;28;109357;-74
2023/04/09 03:41:49;;;;;;;;;;;10.60;86.20;;;10.86;54.83;99346.50;5031007;27;108667;-75
2023/04/09 03:44:15;;;;;;;;;;;10.60;86.30;;;10.87;55.05;99348.94;5031257;28;124315;-74
2023/04/09 03:46:41;;;;;;;;;;;10.60;86.30;;;10.89;54.58;99345.88;5030879;28;124078;-74
2023/04/09 03:49:07;;;;;;;;;;;10.60;86.40;;;10.89;55.00;99341.16;5034686;28;108878;-74
2023/04/09 03:51:34;;;;;;;;;;;10.60;86.50;;;10.89;54.73;99343.94;5035192;27;108752;-75
2023/04/09 03:54:00;;;;;;;;;;;10.60;86.50;;;10.90;54.75;99342.00;5033623;28;123313;-75
2023/04/09 03:56:26;;;;;;;;;;;10.60;86.50;;;10.89;54.89;99341.16;5033842;28;123803;-74
2023/04/09 03:58:52;;;;;;;;;;;10.60;86.50;;;10.86;54.61;99341.78;5067791;27;108763;-75
2023/04/09 04:01:19;;;;;;;;;;;10.60;86.60;;;10.86;55.06;99347.31;5032142;28;108722;-75
2023/04/09 04:03:45;;;;;;;;;;;10.60;86.70;;;10.81;55.14;99339.91;5033651;27;123418;-76
2023/04/09 04:06:11;;;;;;;;;;;10.60;86.80;;;10.77;55.17;99349.09;5039808;27;123835;-75
2023/04/09 04:08:37;;;;;;;;;;;10.50;86.70;;;10.75;55.30;99345.81;5065704;27;109375;-76
2023/04/09 04:11:06;;;;;;;;;;;10.50;86.80;;;10.74;55.06;99344.16;5032433;28;108669;-76
2023/04/09 04:13:32;;;;;;;;;;;10.50;86.90;;;10.70;55.63;99338.44;5032974;28;124246;-75
2023/04/09 04:15:59;;;;;;;;;;;10.50;87.10;;;10.66;55.44;99345.66;5032226;28;124272;-74
2023/04/09 04:18:25;;;;;;;;;;;10.50;87.10;;;10.66;55.44;99342.09;5032546;28;109614;-78
2023/04/09 04:20:51;;;;;;;;;;;10.40;87.10;;;10.66;55.22;99342.09;5018320;28;108081;-74
2023/04/09 04:23:17;;;;;;;;;;;10.40;87.20;;;10.67;55.56;99352.03;5031672;27;124571;-75
2023/04/09 04:25:44;;;;;;;;;;;10.40;87.30;;;10.67;55.69;99354.81;5029968;28;124618;-75
2023/04/09 04:28:10;;;;;;;;;;;10.40;87.40;;;10.67;55.56;99355.63;5032124;28;109276;-75
2023/04/09 04:30:36;;;;;;;;;;;10.40;87.40;;;10.69;55.29;99352.53;5030687;28;108670;-75
2023/04/09 04:33:03;;;;;;;;;;;10.40;87.50;;;10.70;55.32;99359.72;5030744;28;124590;-75
2023/04/09 04:35:29;;;;;;;;;;;10.40;87.50;;;10.70;55.41;99359.72;5030927;28;123856;-75
2023/04/09 04:37:55;;;;;;;;;;;10.40;87.60;;;10.72;55.71;99363.00;5036435;27;109482;-74
2023/04/09 04:40:22;;;;;;;;;;;10.50;87.70;;;10.72;55.41;99363.00;5033144;28;107899;-73
2023/04/09 04:42:50;;;;;;;;;;;10.40;87.70;;;10.68;55.87;99357.25;5033045;28;124447;-76
2023/04/09 04:45:17;;;;;;;;;;;10.40;87.80;;;10.64;55.51;99363.66;5029704;28;124017;-76
2023/04/09 04:47:43;;;;;;;;;;;10.40;87.80;;;10.63;55.75;99362.84;5064045;27;109425;-75
2023/04/09 04:50:09;;;;;;;;;;;10.40;87.80;;;10.63;55.87;99362.84;5031524;28;108750;-76
2023/04/09 04:52:37;;;;;;;;;;;11.00;88.50;;;10.63;55.64;99364.78;5023752;28;123115;-75
2023/04/09 04:55:04;;;;;;;;;;;10.40;88.00;;;10.63;55.66;99370.31;5029937;28;123930;-75
2023/04/09 04:57:30;;;;;;;;;;;10.40;88.00;;;10.60;55.68;99372.56;5034699;27;109514;-75
2023/04/09 04:59:56;;;;;;;;;;;10.40;88.20;;;10.58;55.93;99369.25;5033804;28;107563;-75
2023/04/09 05:02:25;;;;;;;;;;;10.30;88.10;;;10.59;56.07;99364.59;5063493;27;124511;-75
2023/04/09 05:04:51;;;;;;;;;;;10.40;88.30;;;10.60;56.21;99369.78;5029511;28;123859;-75
2023/04/09 05:07:17;;;;;;;;;;;10.40;88.40;;;10.63;56.36;99375.84;5033195;27;109255;-75
2023/04/09 05:09:44;;;;;;;;;;;10.40;88.40;;;10.63;55.75;99375.84;5030851;28;109710;-75
2023/04/09 05:12:10;;;;;;;;;;;10.40;88.40;;;10.61;55.86;99370.59;5030164;28;124298;-77
2023/04/09 05:14:36;;;;;;;;;;;10.40;88.70;;;10.57;55.97;99366.81;5030460;28;124338;-75
2023/04/09 05:17:03;;;;;;;;;;;10.30;88.50;;;10.52;56.48;99366.88;5029725;28;109367;-75
2023/04/09 05:19:29;;;;;;;;;;;10.30;88.70;;;10.45;56.57;99364.50;5012402;28;107881;-75
2023/04/09 05:21:55;;;;;;;;;;;10.20;88.60;;;10.39;56.50;99365.66;5028752;27;124021;-75
2023/04/09 05:24:21;;;;;;;;;;;10.20;88.70;;;10.37;56.51;99373.47;5028366;28;123818;-74
2023/04/09 05:26:48;;;;;;;;;;;10.20;88.70;;;10.39;56.48;99368.44;5032518;27;108766;-75
2023/04/09 05:29:16;;;;;;;;;;;10.20;89.10;;;10.37;56.95;99367.94;5031313;28;108667;-75
2023/04/09 05:31:43;;;;;;;;;;;10.20;89.20;;;10.36;56.79;99372.63;5029869;28;124455;-76
2023/04/09 05:34:09;;;;;;;;;;;10.20;89.10;;;10.36;56.50;99378.13;5030399;28;124526;-75
2023/04/09 05:36:35;;;;;;;;;;;10.20;89.10;;;10.36;56.99;99377.31;5048592;27;108361;-75
2023/04/09 05:39:01;;;;;;;;;;;10.20;89.30;;;10.36;56.93;99371.78;5030796;28;108732;-75
2023/04/09 05:41:28;;;;;;;;;;;10.10;89.20;;;10.35;57.08;99381.22;5049153;27;123009;-74
2023/04/09 05:43:54;;;;;;;;;;;10.10;89.40;;;10.35;56.74;99382.03;5029277;28;123685;-74
2023/04/09 05:46:21;;;;;;;;;;;10.10;89.40;;;10.37;56.90;99385.31;5022875;28;109450;-74
2023/04/09 05:48:47;;;;;;;;;;;10.10;89.50;;;10.39;56.88;99385.00;5034427;27;108915;-74
2023/04/09 05:51:14;;;;;;;;;;;10.10;89.60;;;10.42;56.74;99383.59;5045393;27;124275;-74
2023/04/09 05:53:41;;;;;;;;;;;8.60;89.30;;;10.42;56.91;99387.16;5016098;28;123513;-74
2023/04/09 05:56:14;;;;;;;;;;;10.20;89.80;;;10.44;56.84;99378.59;5053096;27;109512;-74
2023/04/09 05:58:40;;;;;;;;;;;10.10;89.80;;;10.45;56.95;99388.53;5026430;28;109837;-74
2023/04/09 06:01:07;;;;;;;;;;;10.20;90.00;;;10.45;57.02;99378.31;5018288;28;124508;-75
2023/04/09 06:03:33;;;;;;;;;;;10.20;90.00;;;10.48;56.79;99379.66;5030308;27;123894;-76
2023/04/09 06:06:00;;;;;;;;;;;10.20;89.90;;;10.53;56.90;99393.38;5021660;27;109540;-75
2023/04/09 06:08:26;;;;;;;;;;;10.20;90.00;;;10.57;56.94;99386.97;5023158;27;108561;-77
2023/04/09 06:10:52;;;;;;;;;;;10.30;90.00;;;10.63;56.74;99384.94;5018224;28;124121;-75
2023/04/09 06:13:18;;;;;;;;;;;10.30;90.00;;;10.69;56.90;99389.28;5014085;28;122786;-77
2023/04/09 06:15:45;;;;;;;;;;;10.30;90.10;;;10.74;56.77;99382.88;5030289;28;109381;-75
2023/04/09 06:18:11;;;;;;;;;;;10.40;90.10;;;10.80;56.58;99385.25;5030377;28;108860;-75
2023/04/09 06:20:37;;;;;;;;;;;10.40;90.10;;;10.88;56.63;99383.78;5029346;28;124125;-77
2023/04/09 06:23:04;;;;;;;;;;;10.50;90.10;;;10.96;56.25;99385.84;5040223;27;124147;-75
2023/04/09 06:25:30;;;;;;;;;;;10.50;90.10;;;11.03;56.33;99371.63;5016817;27;109552;-78
2023/04/09 06:27:56;;;;;;;;;;;10.60;90.00;;;11.09;55.93;99373.19;5033515;27;107799;-75
2023/04/09 06:30:25;;;;;;;;;;;10.70;90.00;;;11.12;55.48;99377.28;5030768;27;124582;-76
2023/04/09 06:32:51;;;;;;;;;;;11.30;90.10;;;11.11;55.67;99372.91;5028018;27;124328;-75
2023/04/09 06:35:17;;;;;;;;;;;10.60;89.40;;;11.16;55.67;99379.16;5048437;27;108522;-75
2023/04/09 06:37:44;;;;;;;;;;;10.70;89.40;;;11.26;55.20;99392.00;5015298;28;107045;-75
2023/04/09 06:40:10;;;;;;;;;;;10.70;89.30;;;11.32;55.04;99382.50;5032941;28;124210;-79
2023/04/09 06:42:37;;;;;;;;;;;10.80;89.40;;;11.40;54.80;99384.56;5034002;28;123363;-75
2023/04/09 06:45:07;;;;;;;;;;;10.90;89.30;;;11.49;54.61;99388.25;5018433;28;109494;-76
2023/04/09 06:47:35;;;;;;;;;;;10.90;89.00;;;11.57;54.80;99385.94;5033796;28;109827;-75
2023/04/09 06:50:02;;;;;;;;;;;11.00;89.00;;;11.65;54.62;99386.03;5032157;28;124052;-77
2023/04/09 06:52:29;;;;;;;;;;;11.10;88.90;;;11.73;54.40;99387.28;5068354;27;123465;-77
2023/04/09 06:54:55;;;;;;;;;;;11.20;88.70;;;11.81;54.26;99381.03;5033223;27;109450;-83
2023/04/09 06:57:21;;;;;;;;;;;11.30;88.40;;;11.90;53.74;99386.72;5051135;27;108092;-78
2023/04/09 06:59:47;;;;;;;;;;;11.40;88.30;;;11.99;53.73;99382.09;5031135;28;124421;-76
2023/04/09 07:02:14;;;;;;;;;;;11.40;88.70;;;12.07;53.18;99386.13;5034995;27;123946;-78
2023/04/09 07:04:40;;;;;;;;;;;11.50;87.80;;;12.12;52.91;99389.59;5031652;28;109389;-82
2023/04/09 07:07:06;;;;;;;;;;;11.50;87.10;;;12.14;52.77;99394.81;5035050;28;107891;-75
2023/04/09 07:09:33;;;;;;;;;;;11.60;87.60;;;12.16;52.51;99390.59;5032750;27;124524;-75
2023/04/09 07:11:59;;;;;;;;;;;11.60;86.50;;;12.22;52.62;99394.09;5034619;28;123420;-73
2023/04/09 07:14:25;;;;;;;;;;;11.70;86.70;;;12.34;52.50;99386.09;5033180;28;109287;-73
2023/04/09 07:16:52;;;;;;;;;;;11.80;86.90;;;12.46;52.50;99391.09;5032414;28;108634;-74
2023/04/09 07:19:18;;;;;;;;;;;11.90;87.10;;;12.56;51.93;99382.56;5030989;28;123786;-76
2023/04/09 07:21:47;;;;;;;;;;;11.90;86.30;;;12.63;51.37;99386.84;5033647;28;123228;-75
2023/04/09 07:24:13;;;;;;;;;;;12.00;85.70;;;12.69;51.24;99391.16;5035019;27;108690;-73
2023/04/09 07:26:40;;;;;;;;;;;12.10;85.90;;;12.78;51.86;99381.78;5065205;27;108575;-74
2023/04/09 07:29:06;;;;;;;;;;;12.20;86.30;;;12.94;51.70;99387.78;5032544;27;124826;-73
2023/04/09 07:31:33;;;;;;;;;;;12.30;86.30;;;13.07;50.87;99388.88;5029839;27;123841;-73
2023/04/09 07:33:59;;;;;;;;;;;12.40;85.50;;;13.17;50.51;99373.94;5032009;28;110396;-74
2023/04/09 07:36:26;;;;;;;;;;;12.50;85.00;;;13.20;49.83;99382.44;5031511;28;110052;-75
2023/04/09 07:38:55;;;;;;;;;;;12.50;84.00;;;13.30;50.08;99378.63;5033078;28;123133;-75
2023/04/09 07:41:21;;;;;;;;;;;12.60;84.30;;;13.43;49.40;99379.69;5034802;27;124052;-76
2023/04/09 07:43:48;;;;;;;;;;;12.70;83.80;;;13.54;48.28;99383.00;5029858;27;109322;-74
2023/04/09 07:46:19;;;;;;;;;;;12.80;82.10;;;13.55;46.22;99391.03;5034461;28;108555;-74
2023/04/09 07:48:45;;;;;;;;;;;12.80;79.40;;;13.52;46.08;99388.09;5018363;27;124393;-75
2023/04/09 07:51:12;;;;;;;;;;;12.80;79.10;;;13.47;46.05;99397.34;5030720;28;124736;-75
2023/04/09 07:53:40;;;;;;;;;;;12.80;78.60;;;13.39;45.27;99404.47;5031899;28;109751;-75
2023/04/09 07:56:07;;;;;;;;;;;12.80;77.20;;;13.28;45.49;99403.09;5032091;28;108939;-76
2023/04/09 07:58:33;;;;;;;;;;;12.70;77.10;;;13.16;46.29;99411.13;5021705;28;123821;-76
2023/04/09 08:00:59;;;;;;;;;;;12.60;77.50;;;13.04;47.07;99414.47;5032432;28;123982;-75
2023/04/09 08:03:26;;;;;;;;;;;12.60;78.30;;;12.99;47.18;99409.84;5031917;27;109058;-75
2023/04/09 08:05:52;;;;;;;;;;;12.60;78.80;;;12.97;47.51;99414.06;5031566;28;108815;-75
2023/04/09 08:08:18;;;;;;;;;;;12.60;78.90;;;12.99;47.54;99407.09;5013091;28;123499;-75
2023/04/09 08:10:45;;;;;;;;;;;12.60;78.90;;;13.07;47.27;99413.03;5016830;28;123071;-77
2023/04/09 08:13:13;;;;;;;;;;;12.60;78.90;;;13.13;46.89;99395.94;5031251;27;109546;-75
2023/04/09 08:15:42;;;;;;;;;;;12.60;78.60;;;13.17;47.06;99401.69;5017004;28;107873;-77
2023/04/09 08:18:10;;;;;;;;;;;12.60;78.70;;;13.22;47.14;99404.34;5034167;28;124413;-78
2023/04/09 08:20:43;;;;;;;;;;;12.70;78.90;;;13.22;46.93;99394.06;5015221;28;122927;-77
2023/04/09 08:23:15;;;;;;;;;;;12.70;78.70;;;13.26;47.21;99395.06;5027884;28;110111;-74
2023/04/09 08:25:43;;;;;;;;;;;12.80;79.00;;;13.35;46.83;99399.88;5031317;28;109023;-77
2023/04/09 08:28:09;;;;;;;;;;;12.90;78.50;;;13.34;45.49;99401.84;5030837;27;123901;-77
2023/04/09 08:30:38;;;;;;;;;;;12.80;76.60;;;13.34;46.06;99401.03;5028565;28;124317;-75
2023/04/09 08:33:04;;;;;;;;;;;12.80;77.10;;;13.40;45.48;99402.53;5030552;28;109450;-75
2023/04/09 08:35:31;;;;;;;;;;;12.90;76.50;;;13.42;45.25;99403.84;5032909;28;108909;-76
2023/04/09 08:37:58;;;;;;;;;;;12.90;76.10;;;13.45;45.38;99402.41;5032653;28;124080;-77
2023/04/09 08:40:24;;;;;;;;;;;12.90;76.40;;;13.50;45.10;99410.59;5031849;28;123793;-77
2023/04/09 08:42:56;;;;;;;;;;;12.90;75.90;;;13.49;44.92;99408.97;5040493;27;109180;-76
2023/04/09 08:45:23;;;;;;;;;;;12.90;75.90;;;13.48;44.77;99404.53;5013371;28;107864;-77
2023/04/09 08:47:50;;;;;;;;;;;12.90;75.30;;;13.42;44.58;99409.41;5026601;28;124413;-77
2023/04/09 08:50:16;;;;;;;;;;;12.90;75.10;;;13.42;44.76;99405.81;5016548;28;123929;-76
2023/04/09 08:52:45;;;;;;;;;;;12.90;75.10;;;13.46;44.35;99398.50;5031313;28;109105;-76
2023/04/09 08:55:14;;;;;;;;;;;12.90;74.50;;;13.46;44.47;99401.28;5031327;28;109070;-77
2023/04/09 08:57:41;;;;;;;;;;;12.90;74.90;;;13.54;44.46;99405.22;5045522;27;124502;-75
2023/04/09 09:00:10;;;;;;;;;;;13.00;74.80;;;13.60;43.21;99412.28;5062355;27;124484;-76
2023/04/09 09:02:38;;;;;;;;;;;13.00;73.10;;;13.66;43.96;99409.06;5067367;27;108435;-74
2023/04/09 09:05:04;;;;;;;;;;;13.00;74.00;;;13.78;44.06;99413.19;5033264;28;108160;-77
2023/04/09 09:07:31;;;;;;;;;;;13.20;74.40;;;13.86;43.06;99413.25;5049742;27;123787;-76
2023/04/09 09:10:02;;;;;;;;;;;13.30;73.00;;;13.92;42.96;99411.16;5030210;28;124188;-75
2023/04/09 09:12:39;;;;;;;;;;;13.30;73.10;;;13.98;42.64;99403.50;5016106;28;109465;-75
2023/04/09 09:15:26;;;;;;;;;;;13.40;72.20;;;14.00;42.68;99413.16;5039714;27;109774;-76
2023/04/09 09:17:57;;;;;;;;;;;13.40;72.10;;;14.08;42.72;99412.38;5028921;28;124136;-73
2023/04/09 09:20:27;;;;;;;;;;;13.50;72.10;;;14.14;42.75;99411.09;5030808;28;123844;-76
2023/04/09 09:22:58;;;;;;;;;;;13.60;72.50;;;14.24;42.65;99417.47;5029637;28;109525;-76
2023/04/09 09:25:25;;;;;;;;;;;13.70;72.30;;;14.28;42.59;99410.97;5013217;28;107867;-74
2023/04/09 09:27:52;;;;;;;;;;;13.70;72.00;;;14.31;41.96;99413.09;5018512;27;123840;-75
2023/04/09 09:30:24;;;;;;;;;;;13.80;71.30;;;14.34;41.99;99417.19;5062297;27;123952;-75
2023/04/09 09:33:04;;;;;;;;;;;13.70;71.10;;;14.42;42.01;99419.19;5029289;28;109160;-76
2023/04/09 09:35:46;;;;;;;;;;;13.90;71.60;;;14.52;41.67;99413.34;5049157;27;107706;-75
2023/04/09 09:38:14;;;;;;;;;;;14.00;71.00;;;14.62;41.69;99417.00;5030345;28;124262;-75
2023/04/09 09:40:41;;;;;;;;;;;14.10;71.10;;;14.68;40.94;99429.59;5017916;28;123971;-75
2023/04/09 09:43:09;;;;;;;;;;;14.10;69.70;;;14.71;40.65;99420.59;5041272;27;108619;-75
2023/04/09 09:45:37;;;;;;;;;;;14.10;69.40;;;14.73;40.13;99419.13;5015871;28;108876;-74
2023/04/09 09:48:09;;;;;;;;;;;14.20;68.40;;;14.72;39.59;99414.72;5030619;28;124248;-75
2023/04/09 09:50:38;;;;;;;;;;;14.20;67.40;;;14.71;39.51;99415.03;5031908;28;122930;-75
2023/04/09 09:53:05;;;;;;;;;;;14.20;67.00;;;14.73;39.24;99415.53;5029831;28;109513;-73
2023/04/09 09:55:37;;;;;;;;;;;14.20;66.50;;;14.71;38.66;99420.59;5063875;27;108652;-75
2023/04/09 09:58:16;;;;;;;;;;;14.20;65.50;;;14.68;38.96;99412.91;5040163;27;124873;-75
2023/04/09 10:00:43;;;;;;;;;;;14.20;65.90;;;14.64;38.29;99418.31;5031387;27;123881;-75
2023/04/09 10:03:16;;;;;;;;;;;14.10;64.60;;;14.61;38.40;99420.91;5015788;28;109181;-75
2023/04/09 10:05:43;;;;;;;;;;;14.10;64.40;;;14.58;38.99;99417.59;5032300;28;108816;-75
2023/04/09 10:08:11;;;;;;;;;;;14.10;65.00;;;14.58;38.05;99414.00;5029320;28;124353;-75
2023/04/09 10:10:42;;;;;;;;;;;14.10;63.90;;;14.55;38.16;99417.44;5049327;27;122607;-75
2023/04/09 10:13:15;;;;;;;;;;;14.10;64.10;;;14.50;37.41;99423.13;5033814;27;109521;-75
2023/04/09 10:15:45;;;;;;;;;;;14.10;62.80;;;14.48;37.36;99423.47;5033058;27;108793;-75
2023/04/09 10:18:11;;;;;;;;;;;14.00;62.20;;;14.50;37.89;99418.38;5031896;28;124384;-75
2023/04/09 10:20:59;;;;;;;;;;;14.10;63.10;;;14.56;37.23;99419.91;5017878;28;123060;-75
2023/04/09 10:23:58;;;;;;;;;;;14.10;62.80;;;14.58;37.01;99420.38;5032999;28;109740;-75
2023/04/09 10:26:29;;;;;;;;;;;14.10;61.70;;;14.58;37.08;99412.03;5026722;27;108779;-74
2023/04/09 10:29:07;;;;;;;;;;;14.10;62.10;;;14.59;36.29;99410.09;5034524;27;123243;-75
2023/04/09 10:31:53;;;;;;;;;;;14.10;60.40;;;14.61;36.02;99413.38;5026109;27;123626;-75
2023/04/09 10:34:22;;;;;;;;;;;14.10;60.00;;;14.63;35.56;99418.63;5035654;28;108624;-74
2023/04/09 10:36:56;;;;;;;;;;;14.20;59.40;;;14.69;35.52;99406.19;5033491;28;108811;-74
2023/04/09 10:39:27;;;;;;;;;;;14.20;59.20;;;14.74;34.94;99404.06;5068354;27;124814;-74
2023/04/09 10:41:55;;;;;;;;;;;14.20;58.10;;;14.78;34.70;99420.94;5033011;28;124285;-74
2023/04/09 10:44:25;;;;;;;;;;;14.30;57.60;;;14.79;34.26;99405.88;5029889;28;114649;-74
2023/04/09 10:46:56;;;;;;;;;;;14.30;57.20;;;14.82;34.11;99410.78;5027867;27;113026;-74
2023/04/09 10:49:24;;;;;;;;;;;14.40;56.70;;;14.87;33.88;99401.47;5049457;27;123492;-74
2023/04/09 10:51:52;;;;;;;;;;;14.40;56.30;;;14.88;34.16;99401.13;5013124;28;123005;-75
2023/04/09 10:54:34;;;;;;;;;;;14.40;56.50;;;14.92;33.59;99407.69;5031995;28;114396;-74
2023/04/09 10:57:06;;;;;;;;;;;14.50;55.40;;;14.98;33.10;99398.03;5030789;28;114908;-74
2023/04/09 10:59:42;;;;;;;;;;;14.50;54.60;;;15.04;33.43;99398.69;5030200;28;124418;-74
2023/04/09 11:02:29;;;;;;;;;;;14.50;55.20;;;15.15;33.92;99401.94;5049387;27;123542;-76
2023/04/09 11:05:17;;;;;;;;;;;14.60;55.80;;;15.27;33.29;99404.09;5025972;27;114468;-73
2023/04/09 11:07:48;;;;;;;;;;;14.70;55.40;;;15.33;32.73;99405.53;5027544;27;113895;-73
2023/04/09 11:10:14;;;;;;;;;;;14.80;54.10;;;15.35;31.81;99395.72;5029949;28;124089;-73
2023/04/09 11:12:41;;;;;;;;;;;14.70;53.00;;;15.41;31.49;99390.78;5028915;28;124052;-73
2023/04/09 11:15:20;;;;;;;;;;;14.80;52.20;;;15.43;31.52;99397.66;5031334;28;114700;-75